Peotone Weather
Peotone-Weather Station Historical Data
 
Daily Summary for April 07, 2020 Units:  English    Metric   Both
Daily Weekly Monthly Yearly Custom
  Current: High: Low: Average:
Temperature: 54.1 °F 56.6 °F 54.1 °F 55.5 °F
Dew Point: 53.3 °F 54.6 °F 53.3 °F 54.2 °F
Humidity: 97% 97% 93% 96%
Wind Speed: 3.4mph 5.3mph 0mph 1.9mph
Wind Gust: 5.8mph 9.2mph - -
WindESE - - East
Pressure: 29.82 in 29.91 in 29.82 in -
Precipitation: 0.06 in      
Historical Graphs
 
 
Tabular Data for April 07, 2020
Time Temperature Dew Point Pressure Wind Wind Speed Wind Gust Humidity Rainfall Rate (Hourly) solar
00:04 56.4 °F 54.4 °F 29.91 in SE 1.7 mph 4.6 mph 93% 0.00 in 0 W/m2
00:09 56.5 °F 54.5 °F 29.91 in SE 2.5 mph 4.6 mph 93% 0.00 in 0 W/m2
00:14 56.6 °F 54.6 °F 29.91 in SE 0.6 mph 4.6 mph 93% 0.00 in 0 W/m2
00:19 56.6 °F 54.6 °F 29.91 in SE 0.9 mph 3.4 mph 93% 0.00 in 0 W/m2
00:24 56.5 °F 54.5 °F 29.91 in SE 1.3 mph 3.4 mph 93% 0.00 in 0 W/m2
00:29 56.4 °F 54.4 °F 29.91 in Calm   2.3 mph 93% 0.00 in 0 W/m2
00:34 56.2 °F 54.4 °F 29.90 in Calm     93.5% 0.00 in 0 W/m2
00:39 56.1 °F 54.4 °F 29.90 in Calm     94% 0.00 in 0 W/m2
00:44 56.1 °F 54.4 °F 29.90 in Calm     94% 0.00 in 0 W/m2
00:49 56.2 °F 54.5 °F 29.90 in Calm     94% 0.00 in 0 W/m2
00:54 56.2 °F 54.5 °F 29.90 in Calm     94% 0.01 in 0 W/m2
00:59 56.2 °F 54.5 °F 29.90 in Calm     94% 0.01 in 0 W/m2
01:04 56.1 °F 54.5 °F 29.90 in Calm     94.4% 0.01 in 0 W/m2
01:09 56 °F 54.6 °F 29.90 in ESE 2.5 mph 4.6 mph 95% 0.01 in 0 W/m2
01:14 56.1 °F 54.6 °F 29.90 in NE 2.1 mph 5.8 mph 94.8% 0.01 in 0 W/m2
01:19 56.1 °F 54.4 °F 29.90 in Calm   5.8 mph 94% 0.01 in 0 W/m2
01:24 56.1 °F 54.4 °F 29.89 in Calm     94% 0.01 in 0 W/m2
01:29 56 °F 54.4 °F 29.90 in Calm     94.3% 0.01 in 0 W/m2
01:34 55.8 °F 54.4 °F 29.89 in Calm     95% 0.01 in 0 W/m2
01:39 55.8 °F 54.4 °F 29.89 in Calm     95% 0.01 in 0 W/m2
01:44 55.8 °F 54.4 °F 29.88 in NNE 0.8 mph 3.4 mph 95% 0.01 in 0 W/m2
01:49 55.8 °F 54.4 °F 29.88 in NNE 0.2 mph 3.4 mph 95% 0.01 in 0 W/m2
01:54 55.6 °F 54.2 °F 29.88 in NNE 0.5 mph 3.4 mph 95% 0.01 in 0 W/m2
01:59 55.6 °F 54.2 °F 29.87 in NNE 0.5 mph 3.4 mph 95% 0.01 in 0 W/m2
02:04 55.6 °F 54.2 °F 29.87 in NE 0.1 mph 2.3 mph 95% 0.00 in 0 W/m2
02:09 55.6 °F 54.2 °F 29.87 in NE 1.2 mph 3.4 mph 95% 0.01 in 0 W/m2
02:14 55.6 °F 54.3 °F 29.88 in NNE 1.5 mph 3.4 mph 95.5% 0.01 in 0 W/m2
02:19 55.4 °F 54.3 °F 29.87 in NNE 0.8 mph 3.4 mph 95.9% 0.02 in 0 W/m2
02:24 55.3 °F 54.2 °F 29.87 in NE 1.8 mph 5.8 mph 96% 0.04 in 0 W/m2
02:29 55.3 °F 54.2 °F 29.87 in NE 2.9 mph 5.8 mph 96.2% 0.04 in 0 W/m2
02:34 55.3 °F 54.2 °F 29.87 in NE 2.7 mph 6.9 mph 96% 0.04 in 0 W/m2
02:39 55.3 °F 54.3 °F 29.87 in NNE 1.7 mph 6.9 mph 96.5% 0.04 in 0 W/m2
02:44 55.3 °F 54.4 °F 29.86 in NE 3.6 mph 6.9 mph 97% 0.05 in 0 W/m2
02:49 55.4 °F 54.6 °F 29.86 in NE 2.3 mph 6.9 mph 97% 0.05 in 0 W/m2
02:54 55.5 °F 54.5 °F 29.86 in ENE 3.3 mph 8.1 mph 96.3% 0.05 in 0 W/m2
02:59 55.5 °F 54.5 °F 29.86 in ENE 1.9 mph 8.1 mph 96.4% 0.05 in 0 W/m2
03:04 55.5 °F 54.5 °F 29.85 in ENE 2.6 mph 5.8 mph 96.5% 0.05 in 0 W/m2
03:09 55.5 °F 54.4 °F 29.85 in ENE 4.1 mph 8.1 mph 96% 0.05 in 0 W/m2
03:14 55.5 °F 54.3 °F 29.84 in ENE 3.7 mph 8.1 mph 96% 0.05 in 0 W/m2
03:19 55.3 °F 54.2 °F 29.84 in ENE 2.8 mph 8.1 mph 96% 0.04 in 0 W/m2
03:24 55.2 °F 54.1 °F 29.84 in East 4.7 mph 8.1 mph 96.2% 0.04 in 0 W/m2
03:29 55.2 °F 54.1 °F 29.84 in East 4.9 mph 8.1 mph 96.2% 0.02 in 0 W/m2
03:34 55.2 °F 54.3 °F 29.83 in East 3.3 mph 8.1 mph 96.7% 0.01 in 0 W/m2
03:39 55.1 °F 54.3 °F 29.83 in East 4.2 mph 6.9 mph 97% 0.01 in 0 W/m2
03:44 55.1 °F 54.2 °F 29.83 in ESE 5.3 mph 9.2 mph 97% 0.01 in 0 W/m2
03:49 55 °F 54.1 °F 29.83 in ESE 4.1 mph 9.2 mph 96.8% 0.01 in 0 W/m2
03:54 55 °F 54.1 °F 29.83 in ESE 2.5 mph 8.1 mph 96.8% 0.00 in 0 W/m2
03:59 54.9 °F 54 °F 29.83 in ESE 1.8 mph 4.6 mph 96.6% 0.00 in 0 W/m2
04:04 54.8 °F 54 °F 29.83 in ESE 0.4 mph 3.4 mph 97% 0.00 in 0 W/m2
04:09 54.7 °F 53.9 °F 29.83 in ESE 2.4 mph 3.4 mph 97% 0.00 in 0 W/m2
04:14 54.7 °F 53.9 °F 29.83 in ESE 1.8 mph 3.4 mph 97% 0.00 in 0 W/m2
04:19 54.8 °F 53.9 °F 29.83 in ESE 1.9 mph 3.4 mph 97% 0.00 in 0 W/m2
04:24 54.7 °F 53.9 °F 29.82 in ESE 3.5 mph 4.6 mph 97% 0.00 in 0 W/m2
04:29 54.6 °F 53.8 °F 29.82 in ESE 3.1 mph 5.8 mph 97% 0.00 in 0 W/m2
04:34 54.4 °F 53.6 °F 29.82 in ESE 3.6 mph 5.8 mph 97% 0.00 in 0 W/m2
04:39 54.4 °F 53.6 °F 29.82 in ESE 2 mph 5.8 mph 97% 0.00 in 0 W/m2
04:44 54.3 °F 53.5 °F 29.82 in ESE 2.1 mph 4.6 mph 97% 0.00 in 0 W/m2
04:49 54.3 °F 53.5 °F 29.82 in ESE 2.6 mph 4.6 mph 97% 0.00 in 0 W/m2
04:54 54.3 °F 53.4 °F 29.82 in ESE 2.8 mph 5.8 mph 97% 0.00 in 0 W/m2
04:58 54.1 °F 53.3 °F 29.82 in ESE 3.4 mph 5.8 mph 97% 0.00 in 0 W/m2
Peotne Weather
Compliments of Weather Underground - 4 mb